sensor_id;sensor_type;location;lat;lon;timestamp;P1;durP1;ratioP1;P2;durP2;ratioP2
1378;SDS011;683;48.738;9.226;2022-12-17T00:00:25;38.40;;;24.97;;
1378;SDS011;683;48.738;9.226;2022-12-17T00:03:10;36.87;;;25.77;;
1378;SDS011;683;48.738;9.226;2022-12-17T00:05:55;32.43;;;22.97;;
1378;SDS011;683;48.738;9.226;2022-12-17T00:08:39;42.63;;;26.10;;
1378;SDS011;683;48.738;9.226;2022-12-17T00:11:24;36.73;;;24.60;;
1378;SDS011;683;48.738;9.226;2022-12-17T00:14:16;36.47;;;25.37;;
1378;SDS011;683;48.738;9.226;2022-12-17T00:17:00;33.00;;;23.03;;
1378;SDS011;683;48.738;9.226;2022-12-17T00:19:44;33.33;;;24.33;;
1378;SDS011;683;48.738;9.226;2022-12-17T00:22:29;36.87;;;25.70;;
1378;SDS011;683;48.738;9.226;2022-12-17T00:25:13;30.10;;;21.50;;
1378;SDS011;683;48.738;9.226;2022-12-17T00:27:58;31.87;;;22.57;;
1378;SDS011;683;48.738;9.226;2022-12-17T00:30:44;39.63;;;24.30;;
1378;SDS011;683;48.738;9.226;2022-12-17T00:33:34;43.53;;;27.73;;
1378;SDS011;683;48.738;9.226;2022-12-17T00:36:18;38.63;;;23.20;;
1378;SDS011;683;48.738;9.226;2022-12-17T00:39:03;34.97;;;24.07;;
1378;SDS011;683;48.738;9.226;2022-12-17T00:41:48;37.20;;;23.87;;
1378;SDS011;683;48.738;9.226;2022-12-17T00:44:32;34.03;;;23.53;;
1378;SDS011;683;48.738;9.226;2022-12-17T00:47:18;35.00;;;23.00;;
1378;SDS011;683;48.738;9.226;2022-12-17T00:50:03;37.27;;;24.30;;
1378;SDS011;683;48.738;9.226;2022-12-17T00:52:50;36.53;;;25.43;;
1378;SDS011;683;48.738;9.226;2022-12-17T00:55:35;35.03;;;25.07;;
1378;SDS011;683;48.738;9.226;2022-12-17T00:58:20;38.43;;;27.43;;
1378;SDS011;683;48.738;9.226;2022-12-17T01:01:04;32.33;;;24.60;;
1378;SDS011;683;48.738;9.226;2022-12-17T01:03:50;36.13;;;24.87;;
1378;SDS011;683;48.738;9.226;2022-12-17T01:06:35;41.17;;;26.33;;
1378;SDS011;683;48.738;9.226;2022-12-17T01:09:20;38.97;;;24.93;;
1378;SDS011;683;48.738;9.226;2022-12-17T01:12:06;36.37;;;24.90;;
1378;SDS011;683;48.738;9.226;2022-12-17T01:15:05;36.40;;;23.33;;
1378;SDS011;683;48.738;9.226;2022-12-17T01:17:51;34.70;;;23.87;;
1378;SDS011;683;48.738;9.226;2022-12-17T01:20:37;33.80;;;24.67;;
1378;SDS011;683;48.738;9.226;2022-12-17T01:23:22;37.20;;;24.63;;
1378;SDS011;683;48.738;9.226;2022-12-17T01:26:06;36.57;;;24.17;;
1378;SDS011;683;48.738;9.226;2022-12-17T01:28:51;42.90;;;25.07;;
1378;SDS011;683;48.738;9.226;2022-12-17T01:31:39;40.50;;;24.67;;
1378;SDS011;683;48.738;9.226;2022-12-17T01:34:23;39.37;;;24.90;;
1378;SDS011;683;48.738;9.226;2022-12-17T01:37:09;44.37;;;25.03;;
1378;SDS011;683;48.738;9.226;2022-12-17T01:39:57;31.03;;;23.13;;
1378;SDS011;683;48.738;9.226;2022-12-17T01:42:43;40.37;;;25.37;;
1378;SDS011;683;48.738;9.226;2022-12-17T01:45:31;44.33;;;24.00;;
1378;SDS011;683;48.738;9.226;2022-12-17T01:48:19;44.20;;;26.10;;
1378;SDS011;683;48.738;9.226;2022-12-17T01:51:10;47.10;;;27.97;;
1378;SDS011;683;48.738;9.226;2022-12-17T01:53:56;34.30;;;25.00;;
1378;SDS011;683;48.738;9.226;2022-12-17T01:56:41;48.33;;;27.60;;
1378;SDS011;683;48.738;9.226;2022-12-17T01:59:28;43.73;;;25.57;;
1378;SDS011;683;48.738;9.226;2022-12-17T02:02:21;39.30;;;25.93;;
1378;SDS011;683;48.738;9.226;2022-12-17T02:05:06;41.03;;;25.60;;
1378;SDS011;683;48.738;9.226;2022-12-17T02:07:53;39.37;;;25.47;;
1378;SDS011;683;48.738;9.226;2022-12-17T02:10:48;46.20;;;27.77;;
1378;SDS011;683;48.738;9.226;2022-12-17T02:13:40;40.77;;;27.40;;
1378;SDS011;683;48.738;9.226;2022-12-17T02:16:33;43.33;;;25.37;;
1378;SDS011;683;48.738;9.226;2022-12-17T02:19:24;35.30;;;26.03;;
1378;SDS011;683;48.738;9.226;2022-12-17T02:22:22;40.83;;;26.27;;
1378;SDS011;683;48.738;9.226;2022-12-17T02:25:19;38.83;;;25.90;;
1378;SDS011;683;48.738;9.226;2022-12-17T02:28:10;43.57;;;25.50;;
1378;SDS011;683;48.738;9.226;2022-12-17T02:30:56;46.73;;;27.00;;
1378;SDS011;683;48.738;9.226;2022-12-17T02:33:41;39.33;;;26.00;;
1378;SDS011;683;48.738;9.226;2022-12-17T02:36:32;38.80;;;25.00;;
1378;SDS011;683;48.738;9.226;2022-12-17T02:39:17;42.17;;;27.27;;
1378;SDS011;683;48.738;9.226;2022-12-17T02:42:02;38.13;;;25.70;;
1378;SDS011;683;48.738;9.226;2022-12-17T02:44:50;38.10;;;27.07;;
1378;SDS011;683;48.738;9.226;2022-12-17T02:47:35;39.03;;;24.67;;
1378;SDS011;683;48.738;9.226;2022-12-17T02:50:21;42.70;;;27.20;;
1378;SDS011;683;48.738;9.226;2022-12-17T02:53:07;42.03;;;26.47;;
1378;SDS011;683;48.738;9.226;2022-12-17T02:55:52;36.90;;;23.47;;
1378;SDS011;683;48.738;9.226;2022-12-17T02:58:37;40.97;;;23.30;;
1378;SDS011;683;48.738;9.226;2022-12-17T03:01:23;47.83;;;27.70;;
1378;SDS011;683;48.738;9.226;2022-12-17T03:04:08;43.17;;;25.53;;
1378;SDS011;683;48.738;9.226;2022-12-17T03:06:53;40.90;;;24.87;;
1378;SDS011;683;48.738;9.226;2022-12-17T03:09:38;42.23;;;25.80;;
1378;SDS011;683;48.738;9.226;2022-12-17T03:12:32;40.37;;;26.30;;
1378;SDS011;683;48.738;9.226;2022-12-17T03:15:17;39.97;;;26.50;;
1378;SDS011;683;48.738;9.226;2022-12-17T03:18:03;41.47;;;25.87;;
1378;SDS011;683;48.738;9.226;2022-12-17T03:21:02;40.63;;;24.80;;
1378;SDS011;683;48.738;9.226;2022-12-17T03:23:47;41.53;;;26.20;;
1378;SDS011;683;48.738;9.226;2022-12-17T03:26:32;38.17;;;26.77;;
1378;SDS011;683;48.738;9.226;2022-12-17T03:29:16;47.80;;;27.63;;
1378;SDS011;683;48.738;9.226;2022-12-17T03:32:01;48.20;;;29.50;;
1378;SDS011;683;48.738;9.226;2022-12-17T03:34:50;52.27;;;28.90;;
1378;SDS011;683;48.738;9.226;2022-12-17T03:37:34;49.87;;;30.70;;
1378;SDS011;683;48.738;9.226;2022-12-17T03:40:19;57.67;;;32.23;;
1378;SDS011;683;48.738;9.226;2022-12-17T03:43:09;57.73;;;31.07;;
1378;SDS011;683;48.738;9.226;2022-12-17T03:45:57;67.87;;;33.13;;
1378;SDS011;683;48.738;9.226;2022-12-17T03:48:42;69.73;;;32.50;;
1378;SDS011;683;48.738;9.226;2022-12-17T03:51:28;58.67;;;32.10;;
1378;SDS011;683;48.738;9.226;2022-12-17T03:54:13;68.37;;;35.73;;
1378;SDS011;683;48.738;9.226;2022-12-17T03:56:57;66.43;;;33.97;;
1378;SDS011;683;48.738;9.226;2022-12-17T03:59:42;81.90;;;36.40;;
1378;SDS011;683;48.738;9.226;2022-12-17T04:02:37;63.53;;;31.50;;
1378;SDS011;683;48.738;9.226;2022-12-17T04:05:22;60.73;;;31.27;;
1378;SDS011;683;48.738;9.226;2022-12-17T04:08:08;64.83;;;34.53;;
1378;SDS011;683;48.738;9.226;2022-12-17T04:10:53;60.57;;;34.20;;
1378;SDS011;683;48.738;9.226;2022-12-17T04:13:38;68.67;;;34.03;;
1378;SDS011;683;48.738;9.226;2022-12-17T04:16:22;107.63;;;32.93;;
1378;SDS011;683;48.738;9.226;2022-12-17T04:19:07;96.70;;;36.23;;
1378;SDS011;683;48.738;9.226;2022-12-17T04:21:52;124.27;;;37.37;;
1378;SDS011;683;48.738;9.226;2022-12-17T04:24:38;64.83;;;32.40;;
1378;SDS011;683;48.738;9.226;2022-12-17T04:27:22;87.43;;;34.73;;
1378;SDS011;683;48.738;9.226;2022-12-17T04:30:08;58.63;;;31.07;;
1378;SDS011;683;48.738;9.226;2022-12-17T04:32:49;68.93;;;31.83;;
1378;SDS011;683;48.738;9.226;2022-12-17T04:35:34;76.63;;;34.07;;
1378;SDS011;683;48.738;9.226;2022-12-17T04:38:19;133.17;;;36.33;;
1378;SDS011;683;48.738;9.226;2022-12-17T04:41:05;93.53;;;33.47;;
1378;SDS011;683;48.738;9.226;2022-12-17T04:43:50;63.60;;;28.67;;
1378;SDS011;683;48.738;9.226;2022-12-17T04:46:34;66.37;;;32.87;;
1378;SDS011;683;48.738;9.226;2022-12-17T04:49:19;82.33;;;30.23;;
1378;SDS011;683;48.738;9.226;2022-12-17T04:52:15;77.77;;;32.63;;
1378;SDS011;683;48.738;9.226;2022-12-17T04:55:00;88.90;;;32.53;;
1378;SDS011;683;48.738;9.226;2022-12-17T04:57:46;91.90;;;34.93;;
1378;SDS011;683;48.738;9.226;2022-12-17T05:00:31;65.60;;;31.13;;
1378;SDS011;683;48.738;9.226;2022-12-17T05:03:15;67.13;;;35.07;;
1378;SDS011;683;48.738;9.226;2022-12-17T05:06:00;54.30;;;33.23;;
1378;SDS011;683;48.738;9.226;2022-12-17T05:08:46;68.67;;;35.23;;
1378;SDS011;683;48.738;9.226;2022-12-17T05:11:30;60.90;;;32.53;;
1378;SDS011;683;48.738;9.226;2022-12-17T05:14:16;65.43;;;30.10;;
1378;SDS011;683;48.738;9.226;2022-12-17T05:17:01;64.87;;;31.93;;
1378;SDS011;683;48.738;9.226;2022-12-17T05:19:45;56.30;;;30.30;;
1378;SDS011;683;48.738;9.226;2022-12-17T05:22:30;51.43;;;28.33;;
1378;SDS011;683;48.738;9.226;2022-12-17T05:25:32;57.13;;;30.23;;
1378;SDS011;683;48.738;9.226;2022-12-17T05:28:17;57.27;;;29.90;;
1378;SDS011;683;48.738;9.226;2022-12-17T05:31:03;123.80;;;44.53;;
1378;SDS011;683;48.738;9.226;2022-12-17T05:33:47;56.80;;;30.47;;
1378;SDS011;683;48.738;9.226;2022-12-17T05:36:32;66.40;;;30.23;;
1378;SDS011;683;48.738;9.226;2022-12-17T05:39:16;57.90;;;28.97;;
1378;SDS011;683;48.738;9.226;2022-12-17T05:42:01;63.97;;;30.47;;
1378;SDS011;683;48.738;9.226;2022-12-17T05:44:46;83.60;;;33.57;;
1378;SDS011;683;48.738;9.226;2022-12-17T05:47:32;66.67;;;31.40;;
1378;SDS011;683;48.738;9.226;2022-12-17T05:50:16;90.07;;;32.57;;
1378;SDS011;683;48.738;9.226;2022-12-17T05:53:01;70.97;;;32.57;;
1378;SDS011;683;48.738;9.226;2022-12-17T05:55:47;81.63;;;31.97;;
1378;SDS011;683;48.738;9.226;2022-12-17T05:58:32;67.00;;;31.23;;
1378;SDS011;683;48.738;9.226;2022-12-17T06:01:17;199.50;;;41.80;;
1378;SDS011;683;48.738;9.226;2022-12-17T06:04:03;135.90;;;35.27;;
1378;SDS011;683;48.738;9.226;2022-12-17T06:06:48;78.27;;;29.07;;
1378;SDS011;683;48.738;9.226;2022-12-17T06:09:32;84.17;;;29.17;;
1378;SDS011;683;48.738;9.226;2022-12-17T06:12:17;68.37;;;27.30;;
1378;SDS011;683;48.738;9.226;2022-12-17T06:15:02;89.33;;;28.73;;
1378;SDS011;683;48.738;9.226;2022-12-17T06:17:51;67.27;;;27.43;;
1378;SDS011;683;48.738;9.226;2022-12-17T06:20:38;142.10;;;30.17;;
1378;SDS011;683;48.738;9.226;2022-12-17T06:23:22;75.37;;;27.93;;
1378;SDS011;683;48.738;9.226;2022-12-17T06:26:07;67.33;;;27.00;;
1378;SDS011;683;48.738;9.226;2022-12-17T06:28:52;74.33;;;29.07;;
1378;SDS011;683;48.738;9.226;2022-12-17T06:31:37;52.63;;;27.40;;
1378;SDS011;683;48.738;9.226;2022-12-17T06:34:22;94.93;;;30.27;;
1378;SDS011;683;48.738;9.226;2022-12-17T06:37:08;94.00;;;30.47;;
1378;SDS011;683;48.738;9.226;2022-12-17T06:39:52;67.47;;;26.97;;
1378;SDS011;683;48.738;9.226;2022-12-17T06:42:37;60.80;;;27.40;;
1378;SDS011;683;48.738;9.226;2022-12-17T06:45:21;69.83;;;29.40;;
1378;SDS011;683;48.738;9.226;2022-12-17T06:48:21;76.70;;;28.73;;
1378;SDS011;683;48.738;9.226;2022-12-17T06:51:05;147.90;;;33.37;;
1378;SDS011;683;48.738;9.226;2022-12-17T06:53:52;69.60;;;29.47;;
1378;SDS011;683;48.738;9.226;2022-12-17T06:56:36;127.63;;;33.07;;
1378;SDS011;683;48.738;9.226;2022-12-17T06:59:21;95.27;;;30.60;;
1378;SDS011;683;48.738;9.226;2022-12-17T07:02:07;72.33;;;30.00;;
1378;SDS011;683;48.738;9.226;2022-12-17T07:04:53;69.07;;;31.50;;
1378;SDS011;683;48.738;9.226;2022-12-17T07:07:37;72.27;;;30.30;;
1378;SDS011;683;48.738;9.226;2022-12-17T07:10:24;82.60;;;32.60;;
1378;SDS011;683;48.738;9.226;2022-12-17T07:13:08;79.30;;;30.60;;
1378;SDS011;683;48.738;9.226;2022-12-17T07:15:53;61.00;;;26.87;;
1378;SDS011;683;48.738;9.226;2022-12-17T07:18:38;78.20;;;30.13;;
1378;SDS011;683;48.738;9.226;2022-12-17T07:21:23;69.03;;;32.00;;
1378;SDS011;683;48.738;9.226;2022-12-17T07:24:08;88.73;;;31.63;;
1378;SDS011;683;48.738;9.226;2022-12-17T07:26:54;61.70;;;29.93;;
1378;SDS011;683;48.738;9.226;2022-12-17T07:29:38;63.90;;;30.37;;
1378;SDS011;683;48.738;9.226;2022-12-17T07:32:23;55.33;;;28.07;;
1378;SDS011;683;48.738;9.226;2022-12-17T07:35:08;70.90;;;30.07;;
1378;SDS011;683;48.738;9.226;2022-12-17T07:37:56;53.23;;;28.10;;
1378;SDS011;683;48.738;9.226;2022-12-17T07:40:42;56.60;;;30.00;;
1378;SDS011;683;48.738;9.226;2022-12-17T07:43:30;60.53;;;29.60;;
1378;SDS011;683;48.738;9.226;2022-12-17T07:46:15;60.87;;;29.90;;
1378;SDS011;683;48.738;9.226;2022-12-17T07:49:00;59.43;;;28.77;;
1378;SDS011;683;48.738;9.226;2022-12-17T07:51:44;74.87;;;30.67;;
1378;SDS011;683;48.738;9.226;2022-12-17T07:54:28;62.40;;;28.63;;
1378;SDS011;683;48.738;9.226;2022-12-17T07:57:13;53.00;;;27.80;;
1378;SDS011;683;48.738;9.226;2022-12-17T07:59:58;50.67;;;27.67;;
1378;SDS011;683;48.738;9.226;2022-12-17T08:02:43;54.37;;;26.97;;
1378;SDS011;683;48.738;9.226;2022-12-17T08:05:28;56.73;;;26.90;;
1378;SDS011;683;48.738;9.226;2022-12-17T08:08:13;55.23;;;30.97;;
1378;SDS011;683;48.738;9.226;2022-12-17T08:10:57;52.13;;;29.30;;
1378;SDS011;683;48.738;9.226;2022-12-17T08:13:42;68.00;;;32.80;;
1378;SDS011;683;48.738;9.226;2022-12-17T08:16:29;60.77;;;30.63;;
1378;SDS011;683;48.738;9.226;2022-12-17T08:19:13;56.67;;;29.43;;
1378;SDS011;683;48.738;9.226;2022-12-17T08:21:58;53.60;;;27.20;;
1378;SDS011;683;48.738;9.226;2022-12-17T08:24:43;57.43;;;29.53;;
1378;SDS011;683;48.738;9.226;2022-12-17T08:27:27;56.13;;;29.23;;
1378;SDS011;683;48.738;9.226;2022-12-17T08:30:12;61.00;;;30.10;;
1378;SDS011;683;48.738;9.226;2022-12-17T08:33:02;71.57;;;33.57;;
1378;SDS011;683;48.738;9.226;2022-12-17T08:35:49;45.67;;;27.93;;
1378;SDS011;683;48.738;9.226;2022-12-17T08:38:35;52.67;;;29.63;;
1378;SDS011;683;48.738;9.226;2022-12-17T08:41:20;51.47;;;27.97;;
1378;SDS011;683;48.738;9.226;2022-12-17T08:44:05;51.50;;;26.67;;
1378;SDS011;683;48.738;9.226;2022-12-17T08:46:50;45.10;;;25.73;;
1378;SDS011;683;48.738;9.226;2022-12-17T08:49:36;51.00;;;27.70;;
1378;SDS011;683;48.738;9.226;2022-12-17T08:52:21;54.03;;;28.47;;
1378;SDS011;683;48.738;9.226;2022-12-17T08:55:08;48.00;;;27.53;;
1378;SDS011;683;48.738;9.226;2022-12-17T08:57:53;55.47;;;29.37;;
1378;SDS011;683;48.738;9.226;2022-12-17T09:00:39;59.50;;;32.10;;
1378;SDS011;683;48.738;9.226;2022-12-17T09:03:23;50.13;;;28.40;;
1378;SDS011;683;48.738;9.226;2022-12-17T09:06:09;48.87;;;28.03;;
1378;SDS011;683;48.738;9.226;2022-12-17T09:08:54;50.60;;;28.80;;
1378;SDS011;683;48.738;9.226;2022-12-17T09:11:40;54.17;;;30.47;;
1378;SDS011;683;48.738;9.226;2022-12-17T09:14:25;51.70;;;28.90;;
1378;SDS011;683;48.738;9.226;2022-12-17T09:17:09;49.33;;;29.40;;
1378;SDS011;683;48.738;9.226;2022-12-17T09:19:54;52.80;;;31.57;;
1378;SDS011;683;48.738;9.226;2022-12-17T09:22:40;49.27;;;29.50;;
1378;SDS011;683;48.738;9.226;2022-12-17T09:25:24;50.17;;;30.40;;
1378;SDS011;683;48.738;9.226;2022-12-17T09:28:09;42.97;;;26.20;;
1378;SDS011;683;48.738;9.226;2022-12-17T09:30:57;45.80;;;28.37;;
1378;SDS011;683;48.738;9.226;2022-12-17T09:33:42;49.70;;;29.87;;
1378;SDS011;683;48.738;9.226;2022-12-17T09:36:27;44.50;;;27.20;;
1378;SDS011;683;48.738;9.226;2022-12-17T09:39:13;51.53;;;29.40;;
1378;SDS011;683;48.738;9.226;2022-12-17T09:41:59;43.73;;;25.97;;
1378;SDS011;683;48.738;9.226;2022-12-17T09:44:50;55.47;;;29.37;;
1378;SDS011;683;48.738;9.226;2022-12-17T09:47:41;51.37;;;27.10;;
1378;SDS011;683;48.738;9.226;2022-12-17T09:50:33;45.17;;;28.23;;
1378;SDS011;683;48.738;9.226;2022-12-17T09:53:20;47.77;;;28.40;;
1378;SDS011;683;48.738;9.226;2022-12-17T09:56:09;49.40;;;27.70;;
1378;SDS011;683;48.738;9.226;2022-12-17T09:58:56;49.90;;;29.33;;
1378;SDS011;683;48.738;9.226;2022-12-17T10:01:41;51.70;;;30.10;;
1378;SDS011;683;48.738;9.226;2022-12-17T10:04:29;53.97;;;29.43;;
1378;SDS011;683;48.738;9.226;2022-12-17T10:07:17;49.63;;;26.87;;
1378;SDS011;683;48.738;9.226;2022-12-17T10:10:16;48.00;;;27.87;;
1378;SDS011;683;48.738;9.226;2022-12-17T10:13:07;44.40;;;27.60;;
1378;SDS011;683;48.738;9.226;2022-12-17T10:15:54;46.57;;;26.63;;
1378;SDS011;683;48.738;9.226;2022-12-17T10:18:39;50.90;;;27.80;;
1378;SDS011;683;48.738;9.226;2022-12-17T10:21:27;47.27;;;28.40;;
1378;SDS011;683;48.738;9.226;2022-12-17T10:24:13;47.77;;;27.50;;
1378;SDS011;683;48.738;9.226;2022-12-17T10:27:06;45.50;;;27.53;;
1378;SDS011;683;48.738;9.226;2022-12-17T10:29:53;44.53;;;25.57;;
1378;SDS011;683;48.738;9.226;2022-12-17T10:32:38;45.77;;;26.63;;
1378;SDS011;683;48.738;9.226;2022-12-17T10:35:34;50.43;;;29.03;;
1378;SDS011;683;48.738;9.226;2022-12-17T10:38:20;43.83;;;26.10;;
1378;SDS011;683;48.738;9.226;2022-12-17T10:41:17;43.47;;;25.97;;
1378;SDS011;683;48.738;9.226;2022-12-17T10:44:18;42.77;;;26.50;;
1378;SDS011;683;48.738;9.226;2022-12-17T10:47:07;46.03;;;23.97;;
1378;SDS011;683;48.738;9.226;2022-12-17T10:49:59;37.80;;;25.57;;
1378;SDS011;683;48.738;9.226;2022-12-17T10:52:45;45.77;;;27.70;;
1378;SDS011;683;48.738;9.226;2022-12-17T10:55:32;53.00;;;28.00;;
1378;SDS011;683;48.738;9.226;2022-12-17T10:58:19;44.57;;;27.67;;
1378;SDS011;683;48.738;9.226;2022-12-17T11:01:05;46.10;;;26.93;;
1378;SDS011;683;48.738;9.226;2022-12-17T11:03:55;44.80;;;25.97;;
1378;SDS011;683;48.738;9.226;2022-12-17T11:06:41;54.97;;;30.37;;
1378;SDS011;683;48.738;9.226;2022-12-17T11:09:33;45.40;;;27.63;;
1378;SDS011;683;48.738;9.226;2022-12-17T11:12:23;44.00;;;25.50;;
1378;SDS011;683;48.738;9.226;2022-12-17T11:15:17;47.03;;;27.30;;
1378;SDS011;683;48.738;9.226;2022-12-17T11:18:05;44.83;;;26.43;;
1378;SDS011;683;48.738;9.226;2022-12-17T11:20:57;47.63;;;26.57;;
1378;SDS011;683;48.738;9.226;2022-12-17T11:23:47;47.80;;;29.27;;
1378;SDS011;683;48.738;9.226;2022-12-17T11:26:35;45.53;;;28.23;;
1378;SDS011;683;48.738;9.226;2022-12-17T11:29:22;49.77;;;29.57;;
1378;SDS011;683;48.738;9.226;2022-12-17T11:32:13;41.73;;;26.87;;
1378;SDS011;683;48.738;9.226;2022-12-17T11:35:13;49.20;;;27.43;;
1378;SDS011;683;48.738;9.226;2022-12-17T11:38:09;43.90;;;27.80;;
1378;SDS011;683;48.738;9.226;2022-12-17T11:41:07;50.20;;;28.07;;
1378;SDS011;683;48.738;9.226;2022-12-17T11:44:01;49.57;;;25.40;;
1378;SDS011;683;48.738;9.226;2022-12-17T11:46:54;49.67;;;27.97;;
1378;SDS011;683;48.738;9.226;2022-12-17T11:49:48;58.73;;;26.80;;
1378;SDS011;683;48.738;9.226;2022-12-17T11:52:40;45.53;;;29.30;;
1378;SDS011;683;48.738;9.226;2022-12-17T11:55:33;56.70;;;28.43;;
1378;SDS011;683;48.738;9.226;2022-12-17T11:58:26;49.83;;;29.53;;
1378;SDS011;683;48.738;9.226;2022-12-17T12:01:18;48.10;;;29.73;;
1378;SDS011;683;48.738;9.226;2022-12-17T12:04:11;45.87;;;29.27;;
1378;SDS011;683;48.738;9.226;2022-12-17T12:07:09;44.77;;;26.90;;
1378;SDS011;683;48.738;9.226;2022-12-17T12:10:05;53.23;;;28.77;;
1378;SDS011;683;48.738;9.226;2022-12-17T12:13:00;47.07;;;29.57;;
1378;SDS011;683;48.738;9.226;2022-12-17T12:15:56;49.23;;;29.60;;
1378;SDS011;683;48.738;9.226;2022-12-17T12:18:56;51.73;;;30.47;;
1378;SDS011;683;48.738;9.226;2022-12-17T12:21:50;51.10;;;29.67;;
1378;SDS011;683;48.738;9.226;2022-12-17T12:24:56;49.17;;;29.40;;
1378;SDS011;683;48.738;9.226;2022-12-17T12:27:51;70.43;;;29.27;;
1378;SDS011;683;48.738;9.226;2022-12-17T12:30:45;55.00;;;29.00;;
1378;SDS011;683;48.738;9.226;2022-12-17T12:33:39;61.00;;;31.33;;
1378;SDS011;683;48.738;9.226;2022-12-17T12:36:31;48.60;;;28.20;;
1378;SDS011;683;48.738;9.226;2022-12-17T12:39:18;47.67;;;29.03;;
1378;SDS011;683;48.738;9.226;2022-12-17T12:42:12;61.13;;;32.93;;
1378;SDS011;683;48.738;9.226;2022-12-17T12:45:01;60.03;;;31.53;;
1378;SDS011;683;48.738;9.226;2022-12-17T12:48:01;54.67;;;28.77;;
1378;SDS011;683;48.738;9.226;2022-12-17T12:50:49;69.17;;;30.03;;
1378;SDS011;683;48.738;9.226;2022-12-17T12:53:41;54.57;;;30.83;;
1378;SDS011;683;48.738;9.226;2022-12-17T12:56:27;52.17;;;29.00;;
1378;SDS011;683;48.738;9.226;2022-12-17T12:59:20;51.30;;;30.90;;
1378;SDS011;683;48.738;9.226;2022-12-17T13:02:15;62.57;;;31.90;;
1378;SDS011;683;48.738;9.226;2022-12-17T13:05:22;54.13;;;33.17;;
1378;SDS011;683;48.738;9.226;2022-12-17T13:08:00;55.03;;;31.53;;
1378;SDS011;683;48.738;9.226;2022-12-17T13:10:44;66.10;;;30.47;;
1378;SDS011;683;48.738;9.226;2022-12-17T13:13:14;63.40;;;33.47;;
1378;SDS011;683;48.738;9.226;2022-12-17T13:15:50;63.47;;;35.43;;
1378;SDS011;683;48.738;9.226;2022-12-17T13:18:22;58.87;;;31.80;;
1378;SDS011;683;48.738;9.226;2022-12-17T13:20:56;62.40;;;32.47;;
1378;SDS011;683;48.738;9.226;2022-12-17T13:23:27;60.00;;;32.03;;
1378;SDS011;683;48.738;9.226;2022-12-17T13:26:12;60.53;;;33.67;;
1378;SDS011;683;48.738;9.226;2022-12-17T13:28:42;57.50;;;31.50;;
1378;SDS011;683;48.738;9.226;2022-12-17T13:31:14;66.47;;;34.90;;
1378;SDS011;683;48.738;9.226;2022-12-17T13:33:48;64.93;;;33.80;;
1378;SDS011;683;48.738;9.226;2022-12-17T13:36:24;63.87;;;34.47;;
1378;SDS011;683;48.738;9.226;2022-12-17T13:38:58;61.47;;;31.73;;
1378;SDS011;683;48.738;9.226;2022-12-17T13:41:32;68.43;;;33.30;;
1378;SDS011;683;48.738;9.226;2022-12-17T13:44:11;63.33;;;34.27;;
1378;SDS011;683;48.738;9.226;2022-12-17T13:46:44;53.57;;;30.10;;
1378;SDS011;683;48.738;9.226;2022-12-17T13:49:15;56.70;;;33.20;;
1378;SDS011;683;48.738;9.226;2022-12-17T13:51:45;75.97;;;34.50;;
1378;SDS011;683;48.738;9.226;2022-12-17T13:54:14;69.80;;;35.43;;
1378;SDS011;683;48.738;9.226;2022-12-17T13:56:44;97.97;;;36.43;;
1378;SDS011;683;48.738;9.226;2022-12-17T13:59:15;67.30;;;35.43;;
1378;SDS011;683;48.738;9.226;2022-12-17T14:01:46;75.67;;;34.90;;
1378;SDS011;683;48.738;9.226;2022-12-17T14:04:21;58.00;;;31.97;;
1378;SDS011;683;48.738;9.226;2022-12-17T14:06:51;65.13;;;33.97;;
1378;SDS011;683;48.738;9.226;2022-12-17T14:09:20;59.10;;;30.10;;
1378;SDS011;683;48.738;9.226;2022-12-17T14:11:49;80.10;;;35.17;;
1378;SDS011;683;48.738;9.226;2022-12-17T14:14:34;86.83;;;39.17;;
1378;SDS011;683;48.738;9.226;2022-12-17T14:17:12;97.00;;;36.00;;
1378;SDS011;683;48.738;9.226;2022-12-17T14:19:44;85.63;;;35.87;;
1378;SDS011;683;48.738;9.226;2022-12-17T14:22:15;88.97;;;37.03;;
1378;SDS011;683;48.738;9.226;2022-12-17T14:24:46;72.27;;;37.40;;
1378;SDS011;683;48.738;9.226;2022-12-17T14:27:20;66.63;;;34.70;;
1378;SDS011;683;48.738;9.226;2022-12-17T14:29:50;60.60;;;29.90;;
1378;SDS011;683;48.738;9.226;2022-12-17T14:32:21;74.07;;;34.50;;
1378;SDS011;683;48.738;9.226;2022-12-17T14:34:50;60.40;;;32.87;;
1378;SDS011;683;48.738;9.226;2022-12-17T14:37:20;73.20;;;34.57;;
1378;SDS011;683;48.738;9.226;2022-12-17T14:39:50;76.77;;;33.90;;
1378;SDS011;683;48.738;9.226;2022-12-17T14:43:04;78.67;;;33.33;;
1378;SDS011;683;48.738;9.226;2022-12-17T14:45:32;66.07;;;34.57;;
1378;SDS011;683;48.738;9.226;2022-12-17T14:48:19;75.17;;;35.17;;
1378;SDS011;683;48.738;9.226;2022-12-17T14:51:19;67.93;;;35.87;;
1378;SDS011;683;48.738;9.226;2022-12-17T14:53:49;63.03;;;33.00;;
1378;SDS011;683;48.738;9.226;2022-12-17T14:56:20;70.53;;;37.07;;
1378;SDS011;683;48.738;9.226;2022-12-17T14:58:48;86.37;;;43.13;;
1378;SDS011;683;48.738;9.226;2022-12-17T15:01:16;67.07;;;35.13;;
1378;SDS011;683;48.738;9.226;2022-12-17T15:03:43;110.00;;;48.50;;
1378;SDS011;683;48.738;9.226;2022-12-17T15:06:12;76.93;;;40.73;;
1378;SDS011;683;48.738;9.226;2022-12-17T15:08:42;72.10;;;38.17;;
1378;SDS011;683;48.738;9.226;2022-12-17T15:11:13;73.60;;;38.53;;
1378;SDS011;683;48.738;9.226;2022-12-17T15:13:42;81.97;;;37.60;;
1378;SDS011;683;48.738;9.226;2022-12-17T15:16:09;83.57;;;41.10;;
1378;SDS011;683;48.738;9.226;2022-12-17T15:18:37;71.67;;;37.70;;
1378;SDS011;683;48.738;9.226;2022-12-17T15:21:05;77.30;;;38.87;;
1378;SDS011;683;48.738;9.226;2022-12-17T15:23:37;90.87;;;40.90;;
1378;SDS011;683;48.738;9.226;2022-12-17T15:26:08;74.33;;;40.03;;
1378;SDS011;683;48.738;9.226;2022-12-17T15:28:37;84.57;;;43.17;;
1378;SDS011;683;48.738;9.226;2022-12-17T15:31:04;107.70;;;41.30;;
1378;SDS011;683;48.738;9.226;2022-12-17T15:33:32;92.63;;;40.37;;
1378;SDS011;683;48.738;9.226;2022-12-17T15:35:59;94.40;;;45.03;;
1378;SDS011;683;48.738;9.226;2022-12-17T15:38:26;118.93;;;42.50;;
1378;SDS011;683;48.738;9.226;2022-12-17T15:40:53;98.23;;;40.80;;
1378;SDS011;683;48.738;9.226;2022-12-17T15:43:21;94.07;;;42.57;;
1378;SDS011;683;48.738;9.226;2022-12-17T15:45:49;94.53;;;40.73;;
1378;SDS011;683;48.738;9.226;2022-12-17T15:48:17;164.20;;;49.67;;
1378;SDS011;683;48.738;9.226;2022-12-17T15:50:48;136.63;;;44.57;;
1378;SDS011;683;48.738;9.226;2022-12-17T15:53:15;113.33;;;43.07;;
1378;SDS011;683;48.738;9.226;2022-12-17T15:55:42;103.87;;;39.87;;
1378;SDS011;683;48.738;9.226;2022-12-17T15:58:10;133.00;;;47.97;;
1378;SDS011;683;48.738;9.226;2022-12-17T16:00:38;94.73;;;45.97;;
1378;SDS011;683;48.738;9.226;2022-12-17T16:03:06;125.77;;;46.13;;
1378;SDS011;683;48.738;9.226;2022-12-17T16:05:34;96.73;;;42.00;;
1378;SDS011;683;48.738;9.226;2022-12-17T16:08:01;164.73;;;46.70;;
1378;SDS011;683;48.738;9.226;2022-12-17T16:10:28;96.83;;;43.17;;
1378;SDS011;683;48.738;9.226;2022-12-17T16:12:56;114.93;;;47.60;;
1378;SDS011;683;48.738;9.226;2022-12-17T16:15:23;95.53;;;44.33;;
1378;SDS011;683;48.738;9.226;2022-12-17T16:17:50;86.63;;;41.30;;
1378;SDS011;683;48.738;9.226;2022-12-17T16:20:19;98.40;;;43.23;;
1378;SDS011;683;48.738;9.226;2022-12-17T16:22:46;104.07;;;40.37;;
1378;SDS011;683;48.738;9.226;2022-12-17T16:25:13;93.27;;;40.80;;
1378;SDS011;683;48.738;9.226;2022-12-17T16:27:41;89.77;;;42.63;;
1378;SDS011;683;48.738;9.226;2022-12-17T16:30:09;126.97;;;44.60;;
1378;SDS011;683;48.738;9.226;2022-12-17T16:32:37;114.60;;;42.43;;
1378;SDS011;683;48.738;9.226;2022-12-17T16:35:04;99.50;;;40.30;;
1378;SDS011;683;48.738;9.226;2022-12-17T16:37:34;103.07;;;43.00;;
1378;SDS011;683;48.738;9.226;2022-12-17T16:40:01;124.60;;;40.40;;